sensor_id;sensor_type;location;lat;lon;timestamp;P1;durP1;ratioP1;P2;durP2;ratioP2
43793;SDS011;29414;44.798;20.366;2022-11-30T00:02:43;4.13;;;3.77;;
43793;SDS011;29414;44.798;20.366;2022-11-30T00:06:43;3.87;;;3.40;;
43793;SDS011;29414;44.798;20.366;2022-11-30T00:10:44;3.33;;;3.03;;
43793;SDS011;29414;44.798;20.366;2022-11-30T00:14:44;4.03;;;3.23;;
43793;SDS011;29414;44.798;20.366;2022-11-30T00:18:44;4.27;;;3.53;;
43793;SDS011;29414;44.798;20.366;2022-11-30T00:22:44;3.50;;;3.20;;
43793;SDS011;29414;44.798;20.366;2022-11-30T00:26:45;4.63;;;3.43;;
43793;SDS011;29414;44.798;20.366;2022-11-30T00:30:45;5.00;;;3.75;;
43793;SDS011;29414;44.798;20.366;2022-11-30T00:34:55;4.40;;;3.50;;
43793;SDS011;29414;44.798;20.366;2022-11-30T00:38:55;4.63;;;3.77;;
43793;SDS011;29414;44.798;20.366;2022-11-30T00:42:55;3.67;;;3.10;;
43793;SDS011;29414;44.798;20.366;2022-11-30T00:46:56;3.07;;;2.77;;
43793;SDS011;29414;44.798;20.366;2022-11-30T00:50:56;4.60;;;3.43;;
43793;SDS011;29414;44.798;20.366;2022-11-30T00:54:56;3.63;;;3.33;;
43793;SDS011;29414;44.798;20.366;2022-11-30T00:58:57;3.43;;;3.00;;
43793;SDS011;29414;44.798;20.366;2022-11-30T01:02:57;3.40;;;3.07;;
43793;SDS011;29414;44.798;20.366;2022-11-30T01:06:58;3.97;;;2.50;;
43793;SDS011;29414;44.798;20.366;2022-11-30T01:11:05;3.40;;;3.07;;
43793;SDS011;29414;44.798;20.366;2022-11-30T01:15:06;3.47;;;2.40;;
43793;SDS011;29414;44.798;20.366;2022-11-30T01:19:07;3.37;;;3.07;;
43793;SDS011;29414;44.798;20.366;2022-11-30T01:23:07;3.10;;;2.80;;
43793;SDS011;29414;44.798;20.366;2022-11-30T01:27:08;2.83;;;2.33;;
43793;SDS011;29414;44.798;20.366;2022-11-30T01:31:09;2.93;;;2.40;;
43793;SDS011;29414;44.798;20.366;2022-11-30T01:35:10;4.17;;;2.80;;
43793;SDS011;29414;44.798;20.366;2022-11-30T01:39:10;6.53;;;2.23;;
43793;SDS011;29414;44.798;20.366;2022-11-30T01:43:10;3.30;;;2.13;;
43793;SDS011;29414;44.798;20.366;2022-11-30T01:47:11;2.47;;;2.27;;
43793;SDS011;29414;44.798;20.366;2022-11-30T01:51:12;2.30;;;1.67;;
43793;SDS011;29414;44.798;20.366;2022-11-30T01:59:31;1.93;;;1.77;;
43793;SDS011;29414;44.798;20.366;2022-11-30T02:03:33;2.03;;;1.40;;
43793;SDS011;29414;44.798;20.366;2022-11-30T02:07:34;1.20;;;1.10;;
43793;SDS011;29414;44.798;20.366;2022-11-30T02:11:35;1.20;;;1.10;;
43793;SDS011;29414;44.798;20.366;2022-11-30T02:15:41;1.50;;;1.40;;
43793;SDS011;29414;44.798;20.366;2022-11-30T02:28:11;5.27;;;0.80;;
43793;SDS011;29414;44.798;20.366;2022-11-30T02:32:22;1.33;;;1.00;;
43793;SDS011;29414;44.798;20.366;2022-11-30T02:36:24;1.63;;;0.73;;
43793;SDS011;29414;44.798;20.366;2022-11-30T02:40:25;0.60;;;0.40;;
43793;SDS011;29414;44.798;20.366;2022-11-30T02:44:25;1.30;;;1.00;;
43793;SDS011;29414;44.798;20.366;2022-11-30T02:48:28;1.23;;;0.70;;
43793;SDS011;29414;44.798;20.366;2022-11-30T02:52:31;0.80;;;0.70;;
43793;SDS011;29414;44.798;20.366;2022-11-30T02:56:31;0.80;;;0.60;;
43793;SDS011;29414;44.798;20.366;2022-11-30T03:00:32;0.83;;;0.70;;
43793;SDS011;29414;44.798;20.366;2022-11-30T03:04:32;1.03;;;0.67;;
43793;SDS011;29414;44.798;20.366;2022-11-30T03:08:32;0.70;;;0.47;;
43793;SDS011;29414;44.798;20.366;2022-11-30T03:12:33;0.87;;;0.63;;
43793;SDS011;29414;44.798;20.366;2022-11-30T03:16:33;1.13;;;0.60;;
43793;SDS011;29414;44.798;20.366;2022-11-30T03:20:33;2.47;;;0.70;;
43793;SDS011;29414;44.798;20.366;2022-11-30T03:24:34;0.90;;;0.87;;
43793;SDS011;29414;44.798;20.366;2022-11-30T03:28:34;0.70;;;0.60;;
43793;SDS011;29414;44.798;20.366;2022-11-30T03:32:35;1.00;;;0.90;;
43793;SDS011;29414;44.798;20.366;2022-11-30T03:36:35;1.35;;;0.70;;
43793;SDS011;29414;44.798;20.366;2022-11-30T03:40:36;1.10;;;0.50;;
43793;SDS011;29414;44.798;20.366;2022-11-30T03:44:36;0.97;;;0.50;;
43793;SDS011;29414;44.798;20.366;2022-11-30T03:48:36;2.30;;;1.03;;
43793;SDS011;29414;44.798;20.366;2022-11-30T03:52:37;1.37;;;0.43;;
43793;SDS011;29414;44.798;20.366;2022-11-30T03:56:37;0.60;;;0.43;;
43793;SDS011;29414;44.798;20.366;2022-11-30T04:00:38;0.70;;;0.50;;
43793;SDS011;29414;44.798;20.366;2022-11-30T04:04:38;1.13;;;0.60;;
43793;SDS011;29414;44.798;20.366;2022-11-30T04:08:39;0.60;;;0.50;;
43793;SDS011;29414;44.798;20.366;2022-11-30T04:12:39;0.53;;;0.40;;
43793;SDS011;29414;44.798;20.366;2022-11-30T04:16:39;0.50;;;0.40;;
43793;SDS011;29414;44.798;20.366;2022-11-30T04:20:40;0.90;;;0.73;;
43793;SDS011;29414;44.798;20.366;2022-11-30T04:24:40;1.30;;;0.60;;
43793;SDS011;29414;44.798;20.366;2022-11-30T04:28:41;2.50;;;0.63;;
43793;SDS011;29414;44.798;20.366;2022-11-30T04:32:41;0.50;;;0.33;;
43793;SDS011;29414;44.798;20.366;2022-11-30T04:36:41;1.30;;;0.50;;
43793;SDS011;29414;44.798;20.366;2022-11-30T04:40:42;0.50;;;0.30;;
43793;SDS011;29414;44.798;20.366;2022-11-30T04:44:42;1.13;;;0.57;;
43793;SDS011;29414;44.798;20.366;2022-11-30T04:48:42;0.50;;;0.33;;
43793;SDS011;29414;44.798;20.366;2022-11-30T04:52:43;0.53;;;0.30;;
43793;SDS011;29414;44.798;20.366;2022-11-30T04:56:46;1.83;;;0.50;;
43793;SDS011;29414;44.798;20.366;2022-11-30T05:00:46;1.27;;;0.30;;
43793;SDS011;29414;44.798;20.366;2022-11-30T05:04:47;2.17;;;0.20;;
43793;SDS011;29414;44.798;20.366;2022-11-30T05:08:47;0.50;;;0.40;;
43793;SDS011;29414;44.798;20.366;2022-11-30T05:12:47;0.50;;;0.30;;
43793;SDS011;29414;44.798;20.366;2022-11-30T05:16:49;0.53;;;0.27;;
43793;SDS011;29414;44.798;20.366;2022-11-30T05:20:49;0.77;;;0.40;;
43793;SDS011;29414;44.798;20.366;2022-11-30T05:24:50;0.40;;;0.10;;
43793;SDS011;29414;44.798;20.366;2022-11-30T05:28:50;1.53;;;0.20;;
43793;SDS011;29414;44.798;20.366;2022-11-30T05:32:51;1.27;;;0.60;;
43793;SDS011;29414;44.798;20.366;2022-11-30T05:36:52;2.00;;;0.30;;
43793;SDS011;29414;44.798;20.366;2022-11-30T05:40:57;0.73;;;0.43;;
43793;SDS011;29414;44.798;20.366;2022-11-30T05:44:58;1.03;;;0.33;;
43793;SDS011;29414;44.798;20.366;2022-11-30T05:48:58;0.60;;;0.30;;
43793;SDS011;29414;44.798;20.366;2022-11-30T05:52:58;0.80;;;0.40;;
43793;SDS011;29414;44.798;20.366;2022-11-30T05:56:59;1.23;;;0.57;;
43793;SDS011;29414;44.798;20.366;2022-11-30T06:01:00;1.40;;;0.20;;
43793;SDS011;29414;44.798;20.366;2022-11-30T06:05:00;0.93;;;0.47;;
43793;SDS011;29414;44.798;20.366;2022-11-30T06:09:00;1.17;;;0.80;;
43793;SDS011;29414;44.798;20.366;2022-11-30T06:13:05;2.30;;;0.50;;
43793;SDS011;29414;44.798;20.366;2022-11-30T06:17:05;1.63;;;0.60;;
43793;SDS011;29414;44.798;20.366;2022-11-30T06:21:06;3.30;;;0.90;;
43793;SDS011;29414;44.798;20.366;2022-11-30T06:25:07;1.63;;;0.80;;
43793;SDS011;29414;44.798;20.366;2022-11-30T06:29:08;1.70;;;0.80;;
43793;SDS011;29414;44.798;20.366;2022-11-30T06:33:08;1.83;;;0.60;;
43793;SDS011;29414;44.798;20.366;2022-11-30T06:37:08;2.00;;;0.70;;
43793;SDS011;29414;44.798;20.366;2022-11-30T06:41:09;2.23;;;0.67;;
43793;SDS011;29414;44.798;20.366;2022-11-30T06:45:11;0.70;;;0.50;;
43793;SDS011;29414;44.798;20.366;2022-11-30T06:49:11;2.20;;;0.57;;
43793;SDS011;29414;44.798;20.366;2022-11-30T06:53:12;0.70;;;0.60;;
43793;SDS011;29414;44.798;20.366;2022-11-30T06:57:12;2.08;;;0.60;;
43793;SDS011;29414;44.798;20.366;2022-11-30T07:01:12;1.00;;;0.63;;
43793;SDS011;29414;44.798;20.366;2022-11-30T07:05:14;1.37;;;0.70;;
43793;SDS011;29414;44.798;20.366;2022-11-30T07:09:14;1.20;;;0.77;;
43793;SDS011;29414;44.798;20.366;2022-11-30T07:13:15;1.33;;;0.70;;
43793;SDS011;29414;44.798;20.366;2022-11-30T07:17:19;2.50;;;0.40;;
43793;SDS011;29414;44.798;20.366;2022-11-30T07:21:19;5.10;;;0.70;;
43793;SDS011;29414;44.798;20.366;2022-11-30T07:25:19;2.73;;;0.50;;
43793;SDS011;29414;44.798;20.366;2022-11-30T07:29:38;2.63;;;0.83;;
43793;SDS011;29414;44.798;20.366;2022-11-30T07:33:38;1.67;;;0.63;;
43793;SDS011;29414;44.798;20.366;2022-11-30T07:37:39;1.63;;;0.87;;
43793;SDS011;29414;44.798;20.366;2022-11-30T07:41:39;2.67;;;1.03;;
43793;SDS011;29414;44.798;20.366;2022-11-30T07:45:40;2.60;;;0.77;;
43793;SDS011;29414;44.798;20.366;2022-11-30T07:49:40;1.53;;;0.80;;
43793;SDS011;29414;44.798;20.366;2022-11-30T07:53:40;5.53;;;1.70;;
43793;SDS011;29414;44.798;20.366;2022-11-30T07:57:41;5.87;;;1.43;;
43793;SDS011;29414;44.798;20.366;2022-11-30T08:01:41;2.93;;;1.43;;
43793;SDS011;29414;44.798;20.366;2022-11-30T08:05:41;2.27;;;1.37;;
43793;SDS011;29414;44.798;20.366;2022-11-30T08:09:42;1.43;;;1.00;;
43793;SDS011;29414;44.798;20.366;2022-11-30T08:13:44;6.37;;;1.50;;
43793;SDS011;29414;44.798;20.366;2022-11-30T08:17:44;1.63;;;1.23;;
43793;SDS011;29414;44.798;20.366;2022-11-30T08:21:44;2.97;;;1.73;;
43793;SDS011;29414;44.798;20.366;2022-11-30T08:25:44;2.90;;;1.20;;
43793;SDS011;29414;44.798;20.366;2022-11-30T08:29:45;2.10;;;1.40;;
43793;SDS011;29414;44.798;20.366;2022-11-30T08:33:45;3.10;;;1.07;;
43793;SDS011;29414;44.798;20.366;2022-11-30T08:37:46;5.03;;;2.17;;
43793;SDS011;29414;44.798;20.366;2022-11-30T08:41:46;5.10;;;2.07;;
43793;SDS011;29414;44.798;20.366;2022-11-30T08:45:46;5.97;;;1.43;;
43793;SDS011;29414;44.798;20.366;2022-11-30T08:49:47;2.53;;;1.67;;
43793;SDS011;29414;44.798;20.366;2022-11-30T08:53:47;2.33;;;1.23;;
43793;SDS011;29414;44.798;20.366;2022-11-30T08:57:47;7.77;;;1.67;;
43793;SDS011;29414;44.798;20.366;2022-11-30T09:01:48;4.77;;;1.23;;
43793;SDS011;29414;44.798;20.366;2022-11-30T09:05:48;10.53;;;2.10;;
43793;SDS011;29414;44.798;20.366;2022-11-30T09:09:49;2.97;;;1.40;;
43793;SDS011;29414;44.798;20.366;2022-11-30T09:13:51;3.33;;;1.47;;
43793;SDS011;29414;44.798;20.366;2022-11-30T09:17:51;1.73;;;1.17;;
43793;SDS011;29414;44.798;20.366;2022-11-30T09:21:52;2.85;;;1.75;;
43793;SDS011;29414;44.798;20.366;2022-11-30T09:25:56;1.83;;;1.00;;
43793;SDS011;29414;44.798;20.366;2022-11-30T09:29:56;1.33;;;0.90;;
43793;SDS011;29414;44.798;20.366;2022-11-30T09:33:57;1.53;;;0.80;;
43793;SDS011;29414;44.798;20.366;2022-11-30T09:37:57;1.23;;;0.70;;
43793;SDS011;29414;44.798;20.366;2022-11-30T09:46:16;2.60;;;1.17;;
43793;SDS011;29414;44.798;20.366;2022-11-30T09:50:23;1.60;;;1.27;;
43793;SDS011;29414;44.798;20.366;2022-11-30T09:54:27;2.30;;;1.27;;
43793;SDS011;29414;44.798;20.366;2022-11-30T09:58:45;1.47;;;0.57;;
43793;SDS011;29414;44.798;20.366;2022-11-30T10:02:47;1.53;;;0.70;;
43793;SDS011;29414;44.798;20.366;2022-11-30T10:06:51;5.00;;;1.30;;
43793;SDS011;29414;44.798;20.366;2022-11-30T10:24:24;1.63;;;0.90;;
43793;SDS011;29414;44.798;20.366;2022-11-30T10:28:15;2.17;;;1.10;;
43793;SDS011;29414;44.798;20.366;2022-11-30T10:32:20;3.50;;;0.87;;
43793;SDS011;29414;44.798;20.366;2022-11-30T10:36:36;1.63;;;0.50;;
43793;SDS011;29414;44.798;20.366;2022-11-30T10:40:46;2.40;;;1.20;;
43793;SDS011;29414;44.798;20.366;2022-11-30T10:44:51;2.87;;;1.43;;
43793;SDS011;29414;44.798;20.366;2022-11-30T10:48:58;2.60;;;1.50;;
43793;SDS011;29414;44.798;20.366;2022-11-30T10:53:01;1.63;;;1.17;;
43793;SDS011;29414;44.798;20.366;2022-11-30T10:57:02;1.40;;;1.13;;
43793;SDS011;29414;44.798;20.366;2022-11-30T11:01:07;3.10;;;1.07;;
43793;SDS011;29414;44.798;20.366;2022-11-30T11:05:13;3.43;;;0.87;;
43793;SDS011;29414;44.798;20.366;2022-11-30T11:13:39;2.93;;;1.07;;
43793;SDS011;29414;44.798;20.366;2022-11-30T11:17:39;1.90;;;1.70;;
43793;SDS011;29414;44.798;20.366;2022-11-30T11:21:40;2.00;;;1.10;;
43793;SDS011;29414;44.798;20.366;2022-11-30T11:25:48;3.00;;;1.33;;
43793;SDS011;29414;44.798;20.366;2022-11-30T11:30:26;1.87;;;1.00;;
43793;SDS011;29414;44.798;20.366;2022-11-30T11:34:23;1.70;;;1.05;;
43793;SDS011;29414;44.798;20.366;2022-11-30T11:42:25;1.43;;;1.00;;
43793;SDS011;29414;44.798;20.366;2022-11-30T11:46:26;1.80;;;0.90;;
43793;SDS011;29414;44.798;20.366;2022-11-30T11:50:30;1.37;;;1.10;;
43793;SDS011;29414;44.798;20.366;2022-11-30T11:58:34;3.20;;;1.67;;
43793;SDS011;29414;44.798;20.366;2022-11-30T12:06:39;2.43;;;2.10;;
43793;SDS011;29414;44.798;20.366;2022-11-30T12:14:43;2.50;;;2.03;;
43793;SDS011;29414;44.798;20.366;2022-11-30T12:19:02;5.30;;;2.97;;
43793;SDS011;29414;44.798;20.366;2022-11-30T12:23:14;2.67;;;2.23;;
43793;SDS011;29414;44.798;20.366;2022-11-30T12:31:24;3.63;;;3.03;;
43793;SDS011;29414;44.798;20.366;2022-11-30T12:35:33;3.60;;;2.73;;
43793;SDS011;29414;44.798;20.366;2022-11-30T12:52:00;5.18;;;2.90;;
43793;SDS011;29414;44.798;20.366;2022-11-30T13:00:07;3.10;;;2.80;;
43793;SDS011;29414;44.798;20.366;2022-11-30T13:12:23;5.40;;;3.17;;
43793;SDS011;29414;44.798;20.366;2022-11-30T13:16:25;5.40;;;3.37;;
43793;SDS011;29414;44.798;20.366;2022-11-30T13:24:39;4.07;;;2.83;;
43793;SDS011;29414;44.798;20.366;2022-11-30T13:28:45;4.13;;;2.87;;
43793;SDS011;29414;44.798;20.366;2022-11-30T13:32:49;3.17;;;2.70;;
43793;SDS011;29414;44.798;20.366;2022-11-30T13:36:49;3.30;;;2.43;;
43793;SDS011;29414;44.798;20.366;2022-11-30T13:40:56;2.40;;;2.20;;
43793;SDS011;29414;44.798;20.366;2022-11-30T13:53:23;3.78;;;2.55;;
43793;SDS011;29414;44.798;20.366;2022-11-30T14:01:27;4.95;;;2.20;;
43793;SDS011;29414;44.798;20.366;2022-11-30T14:13:37;1.83;;;1.70;;
43793;SDS011;29414;44.798;20.366;2022-11-30T14:17:37;3.30;;;2.23;;
43793;SDS011;29414;44.798;20.366;2022-11-30T14:21:38;3.93;;;2.27;;
43793;SDS011;29414;44.798;20.366;2022-11-30T14:25:46;2.37;;;1.67;;
43793;SDS011;29414;44.798;20.366;2022-11-30T14:29:51;4.37;;;2.27;;
43793;SDS011;29414;44.798;20.366;2022-11-30T14:33:54;4.55;;;2.50;;
43793;SDS011;29414;44.798;20.366;2022-11-30T14:37:55;2.70;;;2.30;;
43793;SDS011;29414;44.798;20.366;2022-11-30T14:41:56;3.13;;;2.23;;
43793;SDS011;29414;44.798;20.366;2022-11-30T14:45:57;2.67;;;2.33;;
43793;SDS011;29414;44.798;20.366;2022-11-30T14:49:59;5.93;;;2.93;;
43793;SDS011;29414;44.798;20.366;2022-11-30T15:02:15;5.70;;;3.23;;
43793;SDS011;29414;44.798;20.366;2022-11-30T15:06:18;3.03;;;2.20;;
43793;SDS011;29414;44.798;20.366;2022-11-30T15:10:23;3.47;;;3.00;;
43793;SDS011;29414;44.798;20.366;2022-11-30T15:14:25;4.45;;;2.22;;
43793;SDS011;29414;44.798;20.366;2022-11-30T15:18:25;3.43;;;1.93;;
43793;SDS011;29414;44.798;20.366;2022-11-30T15:22:26;8.40;;;3.07;;
43793;SDS011;29414;44.798;20.366;2022-11-30T15:30:36;3.97;;;2.47;;
43793;SDS011;29414;44.798;20.366;2022-11-30T15:34:38;3.17;;;2.50;;
43793;SDS011;29414;44.798;20.366;2022-11-30T15:38:46;3.80;;;3.27;;
43793;SDS011;29414;44.798;20.366;2022-11-30T15:42:49;5.03;;;3.78;;
43793;SDS011;29414;44.798;20.366;2022-11-30T15:46:59;4.40;;;3.20;;
43793;SDS011;29414;44.798;20.366;2022-11-30T15:51:01;4.53;;;3.17;;
43793;SDS011;29414;44.798;20.366;2022-11-30T15:55:02;4.27;;;2.73;;
43793;SDS011;29414;44.798;20.366;2022-11-30T16:03:10;4.57;;;3.30;;
43793;SDS011;29414;44.798;20.366;2022-11-30T16:07:14;3.63;;;3.20;;
43793;SDS011;29414;44.798;20.366;2022-11-30T16:11:15;4.07;;;3.67;;
43793;SDS011;29414;44.798;20.366;2022-11-30T16:19:16;3.23;;;2.77;;
43793;SDS011;29414;44.798;20.366;2022-11-30T16:23:17;3.30;;;2.93;;
43793;SDS011;29414;44.798;20.366;2022-11-30T16:27:18;3.77;;;2.77;;
43793;SDS011;29414;44.798;20.366;2022-11-30T16:31:19;4.40;;;3.07;;
43793;SDS011;29414;44.798;20.366;2022-11-30T16:35:21;5.57;;;2.33;;
43793;SDS011;29414;44.798;20.366;2022-11-30T16:39:22;3.20;;;2.50;;
43793;SDS011;29414;44.798;20.366;2022-11-30T16:43:22;4.70;;;2.30;;
43793;SDS011;29414;44.798;20.366;2022-11-30T16:47:24;3.00;;;2.30;;
43793;SDS011;29414;44.798;20.366;2022-11-30T16:51:25;2.73;;;2.10;;
43793;SDS011;29414;44.798;20.366;2022-11-30T16:55:30;3.87;;;2.50;;
43793;SDS011;29414;44.798;20.366;2022-11-30T16:59:30;3.00;;;2.30;;
43793;SDS011;29414;44.798;20.366;2022-11-30T17:03:31;3.30;;;2.80;;
43793;SDS011;29414;44.798;20.366;2022-11-30T17:07:32;4.83;;;2.60;;
43793;SDS011;29414;44.798;20.366;2022-11-30T17:11:35;3.60;;;2.73;;
43793;SDS011;29414;44.798;20.366;2022-11-30T17:15:35;5.17;;;2.10;;
43793;SDS011;29414;44.798;20.366;2022-11-30T17:19:36;3.67;;;2.20;;
43793;SDS011;29414;44.798;20.366;2022-11-30T17:23:37;3.77;;;2.37;;
43793;SDS011;29414;44.798;20.366;2022-11-30T17:27:38;5.30;;;3.17;;
43793;SDS011;29414;44.798;20.366;2022-11-30T17:31:38;4.03;;;2.67;;
43793;SDS011;29414;44.798;20.366;2022-11-30T17:35:38;2.67;;;2.00;;
43793;SDS011;29414;44.798;20.366;2022-11-30T17:39:39;3.43;;;2.17;;
43793;SDS011;29414;44.798;20.366;2022-11-30T17:43:41;4.70;;;3.30;;
43793;SDS011;29414;44.798;20.366;2022-11-30T17:47:42;2.90;;;2.60;;
43793;SDS011;29414;44.798;20.366;2022-11-30T17:51:42;5.20;;;2.67;;
43793;SDS011;29414;44.798;20.366;2022-11-30T17:55:42;2.40;;;2.13;;
43793;SDS011;29414;44.798;20.366;2022-11-30T17:59:43;2.63;;;2.10;;
43793;SDS011;29414;44.798;20.366;2022-11-30T18:03:43;4.43;;;3.10;;
43793;SDS011;29414;44.798;20.366;2022-11-30T18:07:46;4.33;;;2.47;;
43793;SDS011;29414;44.798;20.366;2022-11-30T18:11:46;4.63;;;2.93;;
43793;SDS011;29414;44.798;20.366;2022-11-30T18:15:46;2.60;;;2.30;;
43793;SDS011;29414;44.798;20.366;2022-11-30T18:19:47;2.20;;;2.00;;
43793;SDS011;29414;44.798;20.366;2022-11-30T18:23:47;2.83;;;2.40;;
43793;SDS011;29414;44.798;20.366;2022-11-30T18:27:50;2.97;;;2.07;;
43793;SDS011;29414;44.798;20.366;2022-11-30T18:31:51;3.90;;;2.27;;
43793;SDS011;29414;44.798;20.366;2022-11-30T18:35:55;5.20;;;2.93;;
43793;SDS011;29414;44.798;20.366;2022-11-30T18:39:58;6.57;;;2.40;;
43793;SDS011;29414;44.798;20.366;2022-11-30T18:43:58;3.70;;;2.87;;
43793;SDS011;29414;44.798;20.366;2022-11-30T18:47:59;4.10;;;2.50;;
43793;SDS011;29414;44.798;20.366;2022-11-30T18:51:59;3.03;;;2.20;;
43793;SDS011;29414;44.798;20.366;2022-11-30T18:56:09;5.27;;;2.83;;
43793;SDS011;29414;44.798;20.366;2022-11-30T19:00:10;2.77;;;2.30;;
43793;SDS011;29414;44.798;20.366;2022-11-30T19:04:10;3.37;;;2.80;;
43793;SDS011;29414;44.798;20.366;2022-11-30T19:08:12;4.30;;;2.07;;
43793;SDS011;29414;44.798;20.366;2022-11-30T19:12:13;3.70;;;2.30;;
43793;SDS011;29414;44.798;20.366;2022-11-30T19:16:14;3.90;;;2.33;;
43793;SDS011;29414;44.798;20.366;2022-11-30T19:20:15;4.83;;;2.70;;
43793;SDS011;29414;44.798;20.366;2022-11-30T19:24:15;5.03;;;2.97;;
43793;SDS011;29414;44.798;20.366;2022-11-30T19:28:16;3.97;;;2.47;;
43793;SDS011;29414;44.798;20.366;2022-11-30T19:32:16;4.37;;;2.90;;
43793;SDS011;29414;44.798;20.366;2022-11-30T19:36:18;2.40;;;1.90;;
43793;SDS011;29414;44.798;20.366;2022-11-30T19:40:18;2.97;;;2.43;;
43793;SDS011;29414;44.798;20.366;2022-11-30T19:44:19;3.40;;;2.23;;
43793;SDS011;29414;44.798;20.366;2022-11-30T19:48:19;2.53;;;2.00;;
43793;SDS011;29414;44.798;20.366;2022-11-30T19:52:19;2.90;;;2.30;;
43793;SDS011;29414;44.798;20.366;2022-11-30T19:56:20;4.23;;;2.70;;
43793;SDS011;29414;44.798;20.366;2022-11-30T20:00:20;4.60;;;2.53;;
43793;SDS011;29414;44.798;20.366;2022-11-30T20:04:20;3.70;;;2.40;;
43793;SDS011;29414;44.798;20.366;2022-11-30T20:08:21;3.97;;;2.47;;
43793;SDS011;29414;44.798;20.366;2022-11-30T20:12:21;3.87;;;2.60;;
43793;SDS011;29414;44.798;20.366;2022-11-30T20:16:22;5.10;;;2.77;;
43793;SDS011;29414;44.798;20.366;2022-11-30T20:20:22;3.47;;;2.07;;
43793;SDS011;29414;44.798;20.366;2022-11-30T20:24:23;3.17;;;2.23;;
43793;SDS011;29414;44.798;20.366;2022-11-30T20:28:23;4.10;;;2.67;;
43793;SDS011;29414;44.798;20.366;2022-11-30T20:32:23;5.13;;;2.63;;
43793;SDS011;29414;44.798;20.366;2022-11-30T20:36:23;3.13;;;2.40;;
43793;SDS011;29414;44.798;20.366;2022-11-30T20:40:24;3.07;;;2.10;;
43793;SDS011;29414;44.798;20.366;2022-11-30T20:44:24;3.43;;;2.07;;
43793;SDS011;29414;44.798;20.366;2022-11-30T20:48:24;2.70;;;2.30;;
43793;SDS011;29414;44.798;20.366;2022-11-30T20:52:24;4.67;;;2.30;;
43793;SDS011;29414;44.798;20.366;2022-11-30T20:56:26;3.93;;;2.00;;
43793;SDS011;29414;44.798;20.366;2022-11-30T21:00:26;3.40;;;2.13;;
43793;SDS011;29414;44.798;20.366;2022-11-30T21:04:26;2.37;;;1.90;;
43793;SDS011;29414;44.798;20.366;2022-11-30T21:08:29;4.87;;;2.30;;
43793;SDS011;29414;44.798;20.366;2022-11-30T21:12:29;2.90;;;2.10;;
43793;SDS011;29414;44.798;20.366;2022-11-30T21:16:29;4.20;;;1.97;;
43793;SDS011;29414;44.798;20.366;2022-11-30T21:20:30;3.47;;;2.20;;
43793;SDS011;29414;44.798;20.366;2022-11-30T21:24:30;5.53;;;2.10;;
43793;SDS011;29414;44.798;20.366;2022-11-30T21:28:30;3.93;;;2.10;;
43793;SDS011;29414;44.798;20.366;2022-11-30T21:32:31;1.97;;;1.57;;
43793;SDS011;29414;44.798;20.366;2022-11-30T21:36:31;3.50;;;1.80;;
43793;SDS011;29414;44.798;20.366;2022-11-30T21:40:32;2.23;;;1.40;;
43793;SDS011;29414;44.798;20.366;2022-11-30T21:44:32;4.10;;;2.20;;
43793;SDS011;29414;44.798;20.366;2022-11-30T21:48:33;4.93;;;1.87;;
43793;SDS011;29414;44.798;20.366;2022-11-30T21:52:34;1.73;;;1.30;;
43793;SDS011;29414;44.798;20.366;2022-11-30T21:56:36;4.63;;;1.67;;
43793;SDS011;29414;44.798;20.366;2022-11-30T22:00:37;3.17;;;1.60;;
43793;SDS011;29414;44.798;20.366;2022-11-30T22:04:37;1.40;;;0.95;;
43793;SDS011;29414;44.798;20.366;2022-11-30T22:08:38;1.97;;;1.33;;
43793;SDS011;29414;44.798;20.366;2022-11-30T22:12:38;1.73;;;1.10;;
43793;SDS011;29414;44.798;20.366;2022-11-30T22:16:38;3.57;;;1.60;;
43793;SDS011;29414;44.798;20.366;2022-11-30T22:20:39;2.40;;;1.70;;
43793;SDS011;29414;44.798;20.366;2022-11-30T22:24:39;3.07;;;1.40;;
43793;SDS011;29414;44.798;20.366;2022-11-30T22:28:43;2.60;;;1.10;;
43793;SDS011;29414;44.798;20.366;2022-11-30T22:32:44;1.70;;;0.80;;
43793;SDS011;29414;44.798;20.366;2022-11-30T22:36:44;1.63;;;0.80;;
43793;SDS011;29414;44.798;20.366;2022-11-30T22:40:45;1.47;;;0.90;;
43793;SDS011;29414;44.798;20.366;2022-11-30T22:44:45;1.27;;;1.17;;
43793;SDS011;29414;44.798;20.366;2022-11-30T22:48:45;2.85;;;1.25;;
43793;SDS011;29414;44.798;20.366;2022-11-30T22:52:46;2.53;;;1.10;;
43793;SDS011;29414;44.798;20.366;2022-11-30T22:56:46;1.07;;;0.77;;
43793;SDS011;29414;44.798;20.366;2022-11-30T23:00:46;2.20;;;1.17;;
43793;SDS011;29414;44.798;20.366;2022-11-30T23:04:47;3.93;;;0.80;;
43793;SDS011;29414;44.798;20.366;2022-11-30T23:08:47;3.27;;;1.20;;
43793;SDS011;29414;44.798;20.366;2022-11-30T23:12:48;1.50;;;0.93;;
43793;SDS011;29414;44.798;20.366;2022-11-30T23:16:48;1.97;;;1.30;;
43793;SDS011;29414;44.798;20.366;2022-11-30T23:20:48;1.90;;;1.03;;
43793;SDS011;29414;44.798;20.366;2022-11-30T23:24:49;1.40;;;1.00;;
43793;SDS011;29414;44.798;20.366;2022-11-30T23:28:50;1.27;;;0.63;;
43793;SDS011;29414;44.798;20.366;2022-11-30T23:32:54;1.30;;;1.07;;
43793;SDS011;29414;44.798;20.366;2022-11-30T23:36:54;2.00;;;1.00;;
43793;SDS011;29414;44.798;20.366;2022-11-30T23:40:54;1.47;;;0.90;;
43793;SDS011;29414;44.798;20.366;2022-11-30T23:44:55;1.90;;;0.60;;
43793;SDS011;29414;44.798;20.366;2022-11-30T23:48:59;1.03;;;0.80;;
43793;SDS011;29414;44.798;20.366;2022-11-30T23:53:00;1.10;;;1.00;;
43793;SDS011;29414;44.798;20.366;2022-11-30T23:57:00;1.73;;;0.80;;
